Time;durP1;ratioP1;P1;durP2;ratioP2;P2;SDS_P1;SDS_P2;PMS_P1;PMS_P2;Temp;Humidity;BMP_temperature;BMP_pressure;BME280_temperature;BME280_humidity;BME280_pressure;Samples;Min_cycle;Max_cycle;Signal;HPM_P1;HPM_P2
2023/11/17 00:01:42;;;;;;;;;;;;;;;;;;4192660;28;19921;-59
2023/11/17 00:03:44;;;;;;;;;;;;;;;;;;4181322;28;19936;-59
2023/11/17 00:05:46;;;;;;;;;;;;;;;;;;4181378;28;19986;-59
2023/11/17 00:07:47;;;;;;;;;;;;;;;;;;4182400;28;19920;-59
2023/11/17 00:09:49;;;;;;;;;;;;;;;;;;4197369;28;20388;-59
2023/11/17 00:11:50;;;;;;;;;;;;;;;;;;4197617;28;19924;-60
2023/11/17 00:13:52;;;;;;;;;;;;;;;;;;4197736;28;19924;-59
2023/11/17 00:15:55;;;;;;;;;;;;;;;;;;4197548;28;19920;-59
2023/11/17 00:17:56;;;;;;;;;;;;;;;;;;4197569;28;19971;-59
2023/11/17 00:19:58;;;;;;;;;;;;;;;;;;4197565;28;20410;-60
2023/11/17 00:21:59;;;;;;;;;;;;;;;;;;4197736;28;20018;-59
2023/11/17 00:24:01;;;;;;;;;;;;;;;;;;4197595;28;19924;-59
2023/11/17 00:26:04;;;;;;;;;;;;;;;;;;4197624;28;19936;-59
2023/11/17 00:28:05;;;;;;;;;;;;;;;;;;4197648;28;20334;-59
2023/11/17 00:30:07;;;;;;;;;;;;;;;;;;4197505;28;19920;-59
2023/11/17 00:32:09;;;;;;;;;;;;;;;;;;4197692;28;19920;-59
2023/11/17 00:34:10;;;;;;;;;;;;;;;;;;4197843;28;19939;-59
2023/11/17 00:36:12;;;;;;;;;;;;;;;;;;4197442;28;19928;-59
2023/11/17 00:38:14;;;;;;;;;;;;;;;;;;4196855;28;19962;-60
2023/11/17 00:40:15;;;;;;;;;;;;;;;;;;4194805;28;19954;-59
2023/11/17 00:42:18;;;;;;;;;;;;;;;;;;4180930;28;20015;-59
2023/11/17 00:44:19;;;;;;;;;;;;;;;;;;4180906;28;19925;-59
2023/11/17 00:46:21;;;;;;;;;;;;;;;;;;4180871;28;19928;-60
2023/11/17 00:48:22;;;;;;;;;;;;;;;;;;4180847;28;20352;-59
2023/11/17 00:50:24;;;;;;;;;;;;;;;;;;4180962;28;19932;-60
2023/11/17 00:52:25;;;;;;;;;;;;;;;;;;4181083;28;19978;-60
2023/11/17 00:54:27;;;;;;;;;;;;;;;;;;4180788;28;19921;-60
2023/11/17 00:56:29;;;;;;;;;;;;;;;;;;4181035;28;19921;-60
2023/11/17 00:58:30;;;;;;;;;;;;;;;;;;4194871;28;19926;-60
2023/11/17 01:00:32;;;;;;;;;;;;;;;;;;4196965;28;20255;-59
2023/11/17 01:02:34;;;;;;;;;;;;;;;;;;4197203;28;20435;-60
2023/11/17 01:04:35;;;;;;;;;;;;;;;;;;4197342;28;19932;-60
2023/11/17 01:06:37;;;;;;;;;;;;;;;;;;4197531;28;19920;-59
2023/11/17 01:08:38;;;;;;;;;;;;;;;;;;4194561;28;19921;-59
2023/11/17 01:10:40;;;;;;;;;;;;;;;;;;4197357;28;19932;-59
2023/11/17 01:12:41;;;;;;;;;;;;;;;;;;4197188;28;20333;-59
2023/11/17 01:14:43;;;;;;;;;;;;;;;;;;4197217;28;19946;-59
2023/11/17 01:16:44;;;;;;;;;;;;;;;;;;4197307;28;19928;-60
2023/11/17 01:18:46;;;;;;;;;;;;;;;;;;4197047;28;19924;-59
2023/11/17 01:20:47;;;;;;;;;;;;;;;;;;4197291;28;19927;-59
2023/11/17 01:22:49;;;;;;;;;;;;;;;;;;4197268;28;19920;-59
2023/11/17 01:24:50;;;;;;;;;;;;;;;;;;4197607;28;20306;-59
2023/11/17 01:26:52;;;;;;;;;;;;;;;;;;4195906;28;19920;-59
2023/11/17 01:28:53;;;;;;;;;;;;;;;;;;4197214;28;19920;-60
2023/11/17 01:30:55;;;;;;;;;;;;;;;;;;4196891;28;19974;-60
2023/11/17 01:32:57;;;;;;;;;;;;;;;;;;4197148;28;19920;-59
2023/11/17 01:34:58;;;;;;;;;;;;;;;;;;4181310;28;20438;-59
2023/11/17 01:37:00;;;;;;;;;;;;;;;;;;4180480;28;19921;-59
2023/11/17 01:39:01;;;;;;;;;;;;;;;;;;4180551;28;19947;-59
2023/11/17 01:41:03;;;;;;;;;;;;;;;;;;4180361;28;19920;-60
2023/11/17 01:43:05;;;;;;;;;;;;;;;;;;4180461;28;19925;-59
2023/11/17 01:45:07;;;;;;;;;;;;;;;;;;4180407;28;19956;-60
2023/11/17 01:47:09;;;;;;;;;;;;;;;;;;4180336;28;20384;-60
2023/11/17 01:49:12;;;;;;;;;;;;;;;;;;4180423;28;20019;-60
2023/11/17 01:51:14;;;;;;;;;;;;;;;;;;4183225;28;19924;-60
2023/11/17 01:53:17;;;;;;;;;;;;;;;;;;4184841;28;19924;-60
2023/11/17 01:55:19;;;;;;;;;;;;;;;;;;4200100;28;19921;-60
2023/11/17 01:57:21;;;;;;;;;;;;;;;;;;4199966;28;19929;-60
2023/11/17 01:59:23;;;;;;;;;;;;;;;;;;4198889;28;19921;-60
2023/11/17 02:01:28;;;;;;;;;;;;;;;;;;4199337;28;19935;-60
2023/11/17 02:03:32;;;;;;;;;;;;;;;;;;4198440;28;19924;-60
2023/11/17 02:05:34;;;;;;;;;;;;;;;;;;4199459;28;19967;-60
2023/11/17 02:07:36;;;;;;;;;;;;;;;;;;4200034;28;20014;-60
2023/11/17 02:09:38;;;;;;;;;;;;;;;;;;4197554;28;20319;-60
2023/11/17 02:11:40;;;;;;;;;;;;;;;;;;4199889;28;20348;-60
2023/11/17 02:13:42;;;;;;;;;;;;;;;;;;4199674;28;20315;-60
2023/11/17 02:15:44;;;;;;;;;;;;;;;;;;4199568;28;19970;-60
2023/11/17 02:17:45;;;;;;;;;;;;;;;;;;4199616;28;19947;-60
2023/11/17 02:19:47;;;;;;;;;;;;;;;;;;4199576;28;19946;-60
2023/11/17 02:21:49;;;;;;;;;;;;;;;;;;4199780;28;19960;-60
2023/11/17 02:23:51;;;;;;;;;;;;;;;;;;4199521;28;19986;-60
2023/11/17 02:25:57;;;;;;;;;;;;;;;;;;4199726;28;19928;-60
2023/11/17 02:27:59;;;;;;;;;;;;;;;;;;4199395;28;19943;-60
2023/11/17 02:30:04;;;;;;;;;;;;;;;;;;4199378;28;19921;-61
2023/11/17 02:32:05;;;;;;;;;;;;;;;;;;4199220;28;19928;-60
2023/11/17 02:34:08;;;;;;;;;;;;;;;;;;4185360;28;19925;-61
2023/11/17 02:36:17;;;;;;;;;;;;;;;;;;4182682;28;20007;-59
2023/11/17 02:38:20;;;;;;;;;;;;;;;;;;4183005;28;19920;-60
2023/11/17 02:40:22;;;;;;;;;;;;;;;;;;4182722;28;19920;-59
2023/11/17 02:42:24;;;;;;;;;;;;;;;;;;4182753;28;19928;-60
2023/11/17 02:44:28;;;;;;;;;;;;;;;;;;4181479;28;19931;-60
2023/11/17 02:46:32;;;;;;;;;;;;;;;;;;4182624;28;19921;-59
2023/11/17 02:48:36;;;;;;;;;;;;;;;;;;4182711;28;20372;-60
2023/11/17 02:51:03;;;;;;;;;;;;;;;;;;4193293;28;19962;-59
2023/11/17 02:53:23;;;;;;;;;;;;;;;;;;4199014;28;19970;-59
2023/11/17 02:55:27;;;;;;;;;;;;;;;;;;4199107;28;19955;-60
2023/11/17 02:57:29;;;;;;;;;;;;;;;;;;4199238;28;19927;-59
2023/11/17 02:59:34;;;;;;;;;;;;;;;;;;4198993;28;19920;-59
2023/11/17 03:01:38;;;;;;;;;;;;;;;;;;4198126;28;19970;-59
2023/11/17 03:03:40;;;;;;;;;;;;;;;;;;4198829;28;20019;-60
2023/11/17 03:05:41;;;;;;;;;;;;;;;;;;4198990;28;19926;-59
2023/11/17 03:07:43;;;;;;;;;;;;;;;;;;4199146;28;19920;-59
2023/11/17 03:09:45;;;;;;;;;;;;;;;;;;4198704;28;19963;-59
2023/11/17 03:11:47;;;;;;;;;;;;;;;;;;4193161;28;19955;-59
2023/11/17 03:13:49;;;;;;;;;;;;;;;;;;4192519;28;19920;-59
2023/11/17 03:15:50;;;;;;;;;;;;;;;;;;4198698;28;20046;-59
2023/11/17 03:17:52;;;;;;;;;;;;;;;;;;4198734;28;19963;-60
2023/11/17 03:19:54;;;;;;;;;;;;;;;;;;4198599;28;20011;-59
2023/11/17 03:21:55;;;;;;;;;;;;;;;;;;4198739;28;19970;-60
2023/11/17 03:23:57;;;;;;;;;;;;;;;;;;4198514;28;20344;-60
2023/11/17 03:25:58;;;;;;;;;;;;;;;;;;4198489;28;19924;-59
2023/11/17 03:28:00;;;;;;;;;;;;;;;;;;4198713;28;20014;-60
2023/11/17 03:30:09;;;;;;;;;;;;;;;;;;4187085;28;19928;-59
2023/11/17 03:32:11;;;;;;;;;;;;;;;;;;4181756;28;19927;-60
2023/11/17 03:34:13;;;;;;;;;;;;;;;;;;4184207;28;19920;-59
2023/11/17 03:36:19;;;;;;;;;;;;;;;;;;4194705;28;19970;-59
2023/11/17 03:38:20;;;;;;;;;;;;;;;;;;4198400;28;20019;-59
2023/11/17 03:40:23;;;;;;;;;;;;;;;;;;4198141;28;20343;-59
2023/11/17 03:42:24;;;;;;;;;;;;;;;;;;4198840;28;19928;-59
2023/11/17 03:44:27;;;;;;;;;;;;;;;;;;4198209;28;19924;-60
2023/11/17 03:46:29;;;;;;;;;;;;;;;;;;4198109;28;19920;-59
2023/11/17 03:48:31;;;;;;;;;;;;;;;;;;4198164;28;19952;-59
2023/11/17 03:50:32;;;;;;;;;;;;;;;;;;4198403;28;19927;-59
2023/11/17 03:52:35;;;;;;;;;;;;;;;;;;4198107;28;20361;-59
2023/11/17 03:54:37;;;;;;;;;;;;;;;;;;4198295;28;19963;-59
2023/11/17 03:56:38;;;;;;;;;;;;;;;;;;4198241;28;20339;-59
2023/11/17 03:58:40;;;;;;;;;;;;;;;;;;4197899;28;20338;-59
2023/11/17 04:00:46;;;;;;;;;;;;;;;;;;4197655;28;19920;-59
2023/11/17 04:02:47;;;;;;;;;;;;;;;;;;4197965;28;19982;-59
2023/11/17 04:04:52;;;;;;;;;;;;;;;;;;4197823;28;19920;-59
2023/11/17 04:06:54;;;;;;;;;;;;;;;;;;4197980;28;20376;-59
2023/11/17 04:08:57;;;;;;;;;;;;;;;;;;4197716;28;19920;-59
2023/11/17 04:10:59;;;;;;;;;;;;;;;;;;4198050;28;19920;-59
2023/11/17 04:13:00;;;;;;;;;;;;;;;;;;4197338;28;19921;-59
2023/11/17 04:15:02;;;;;;;;;;;;;;;;;;4197616;28;19927;-60
2023/11/17 04:17:06;;;;;;;;;;;;;;;;;;4197852;28;19927;-59
2023/11/17 04:19:08;;;;;;;;;;;;;;;;;;4197737;28;19924;-59
2023/11/17 04:21:12;;;;;;;;;;;;;;;;;;4197934;28;19921;-59
2023/11/17 04:23:14;;;;;;;;;;;;;;;;;;4197538;28;19924;-59
2023/11/17 04:25:16;;;;;;;;;;;;;;;;;;4195104;28;19970;-59
2023/11/17 04:27:19;;;;;;;;;;;;;;;;;;4181097;28;20462;-59
2023/11/17 04:29:20;;;;;;;;;;;;;;;;;;4181278;28;19944;-59
2023/11/17 04:31:22;;;;;;;;;;;;;;;;;;4181156;28;19922;-59
2023/11/17 04:33:23;;;;;;;;;;;;;;;;;;4180978;28;19975;-59
2023/11/17 04:35:25;;;;;;;;;;;;;;;;;;4181098;28;19921;-59
2023/11/17 04:37:28;;;;;;;;;;;;;;;;;;4179839;28;19929;-59
2023/11/17 04:39:29;;;;;;;;;;;;;;;;;;4180020;28;20381;-59
2023/11/17 04:41:31;;;;;;;;;;;;;;;;;;4180877;28;19920;-59
2023/11/17 04:43:33;;;;;;;;;;;;;;;;;;4193788;28;20015;-59
2023/11/17 04:45:36;;;;;;;;;;;;;;;;;;4197688;28;19921;-59
2023/11/17 04:47:37;;;;;;;;;;;;;;;;;;4197519;28;19924;-59
2023/11/17 04:49:39;;;;;;;;;;;;;;;;;;4197697;28;19921;-59
2023/11/17 04:51:41;;;;;;;;;;;;;;;;;;4197286;28;19927;-59
2023/11/17 04:53:42;;;;;;;;;;;;;;;;;;4197374;28;19920;-59
2023/11/17 04:55:45;;;;;;;;;;;;;;;;;;4197437;28;19920;-59
2023/11/17 04:57:47;;;;;;;;;;;;;;;;;;4197347;28;20130;-59
2023/11/17 04:59:50;;;;;;;;;;;;;;;;;;4197280;28;19977;-59
2023/11/17 05:01:52;;;;;;;;;;;;;;;;;;4197242;28;19926;-59
2023/11/17 05:03:54;;;;;;;;;;;;;;;;;;4197636;28;19939;-59
2023/11/17 05:05:56;;;;;;;;;;;;;;;;;;4197503;28;19924;-59
2023/11/17 05:07:59;;;;;;;;;;;;;;;;;;4197129;28;19936;-59
2023/11/17 05:10:05;;;;;;;;;;;;;;;;;;4197306;28;19920;-59
2023/11/17 05:12:07;;;;;;;;;;;;;;;;;;4197635;28;20529;-59
2023/11/17 05:14:08;;;;;;;;;;;;;;;;;;4197228;28;19929;-59
2023/11/17 05:16:12;;;;;;;;;;;;;;;;;;4197239;28;19920;-59
2023/11/17 05:18:13;;;;;;;;;;;;;;;;;;4197174;28;19978;-60
2023/11/17 05:20:15;;;;;;;;;;;;;;;;;;4192238;28;19924;-59
2023/11/17 05:22:17;;;;;;;;;;;;;;;;;;4184849;28;19925;-59
2023/11/17 05:24:22;;;;;;;;;;;;;;;;;;4188679;28;19982;-59
2023/11/17 05:26:23;;;;;;;;;;;;;;;;;;4200685;28;19986;-59
2023/11/17 05:28:27;;;;;;;;;;;;;;;;;;4200360;28;19971;-59
2023/11/17 05:30:31;;;;;;;;;;;;;;;;;;4200162;28;19920;-59
2023/11/17 05:32:33;;;;;;;;;;;;;;;;;;4200178;28;20426;-59
2023/11/17 05:34:35;;;;;;;;;;;;;;;;;;4200507;28;19927;-59
2023/11/17 05:36:39;;;;;;;;;;;;;;;;;;4200259;28;20372;-59
2023/11/17 05:38:41;;;;;;;;;;;;;;;;;;4200179;28;19969;-59
2023/11/17 05:40:42;;;;;;;;;;;;;;;;;;4200001;28;19920;-59
2023/11/17 05:42:44;;;;;;;;;;;;;;;;;;4200202;28;19952;-59
2023/11/17 05:44:46;;;;;;;;;;;;;;;;;;4200116;28;19931;-60
2023/11/17 05:46:47;;;;;;;;;;;;;;;;;;4198781;28;20392;-59
2023/11/17 05:48:50;;;;;;;;;;;;;;;;;;4200352;28;19921;-60
2023/11/17 05:50:51;;;;;;;;;;;;;;;;;;4199768;28;20345;-59
2023/11/17 05:52:56;;;;;;;;;;;;;;;;;;4199945;28;19977;-59
2023/11/17 05:54:57;;;;;;;;;;;;;;;;;;4192098;28;20078;-59
2023/11/17 05:56:59;;;;;;;;;;;;;;;;;;4190269;28;19946;-59
2023/11/17 05:59:00;;;;;;;;;;;;;;;;;;4199377;28;20659;-59
2023/11/17 06:01:02;;;;;;;;;;;;;;;;;;4199453;28;20384;-59
2023/11/17 06:03:04;;;;;;;;;;;;;;;;;;4200012;28;19920;-60
2023/11/17 06:05:08;;;;;;;;;;;;;;;;;;4199810;28;19969;-59
2023/11/17 06:07:09;;;;;;;;;;;;;;;;;;4186609;28;19925;-59
2023/11/17 06:09:12;;;;;;;;;;;;;;;;;;4194121;28;20197;-59
2023/11/17 06:11:14;;;;;;;;;;;;;;;;;;4199649;28;19920;-59
2023/11/17 06:13:15;;;;;;;;;;;;;;;;;;4199520;28;20007;-59
2023/11/17 06:15:26;;;;;;;;;;;;;;;;;;4199533;28;20012;-59
2023/11/17 06:17:29;;;;;;;;;;;;;;;;;;4197743;28;19951;-59
2023/11/17 06:19:33;;;;;;;;;;;;;;;;;;4182933;28;19975;-59
2023/11/17 06:21:34;;;;;;;;;;;;;;;;;;4183272;28;19921;-60
2023/11/17 06:23:36;;;;;;;;;;;;;;;;;;4184663;28;19925;-62
2023/11/17 06:25:37;;;;;;;;;;;;;;;;;;4199455;28;19924;-62
2023/11/17 06:27:39;;;;;;;;;;;;;;;;;;4199466;28;19924;-62
2023/11/17 06:29:40;;;;;;;;;;;;;;;;;;4199371;28;20372;-63
2023/11/17 06:31:42;;;;;;;;;;;;;;;;;;4192798;28;20427;-62
2023/11/17 06:33:44;;;;;;;;;;;;;;;;;;4194007;28;19970;-62
2023/11/17 06:35:45;;;;;;;;;;;;;;;;;;4199355;28;19974;-62
2023/11/17 06:37:47;;;;;;;;;;;;;;;;;;4186838;28;19924;-62
2023/11/17 06:39:48;;;;;;;;;;;;;;;;;;4182394;28;20339;-62
2023/11/17 06:41:49;;;;;;;;;;;;;;;;;;4184183;28;20342;-62
2023/11/17 06:43:53;;;;;;;;;;;;;;;;;;4181362;28;19921;-62
2023/11/17 06:45:56;;;;;;;;;;;;;;;;;;4184762;28;19920;-63
2023/11/17 06:47:58;;;;;;;;;;;;;;;;;;4186060;28;19978;-62
2023/11/17 06:49:59;;;;;;;;;;;;;;;;;;4196929;28;19981;-63
2023/11/17 06:52:06;;;;;;;;;;;;;;;;;;4190040;28;19925;-62
2023/11/17 06:54:10;;;;;;;;;;;;;;;;;;4199221;28;19921;-62
2023/11/17 06:56:11;;;;;;;;;;;;;;;;;;4199133;28;19924;-62
2023/11/17 06:58:13;;;;;;;;;;;;;;;;;;4196377;28;19946;-62
2023/11/17 07:00:15;;;;;;;;;;;;;;;;;;4197720;28;20407;-61
2023/11/17 07:02:17;;;;;;;;;;;;;;;;;;4198712;28;20410;-62
2023/11/17 07:04:19;;;;;;;;;;;;;;;;;;4197480;28;20015;-62
2023/11/17 07:06:25;;;;;;;;;;;;;;;;;;4198626;28;19927;-62
2023/11/17 07:08:26;;;;;;;;;;;;;;;;;;4198481;28;19920;-63
2023/11/17 07:10:29;;;;;;;;;;;;;;;;;;4198593;28;20446;-62
2023/11/17 07:12:31;;;;;;;;;;;;;;;;;;4198636;28;20006;-62
2023/11/17 07:14:33;;;;;;;;;;;;;;;;;;4191512;28;20302;-63
2023/11/17 07:16:35;;;;;;;;;;;;;;;;;;4182023;28;19970;-63
2023/11/17 07:18:44;;;;;;;;;;;;;;;;;;4182004;28;20292;-63
2023/11/17 07:20:45;;;;;;;;;;;;;;;;;;4181916;28;20229;-62
2023/11/17 07:22:49;;;;;;;;;;;;;;;;;;4182162;28;19998;-63
2023/11/17 07:24:50;;;;;;;;;;;;;;;;;;4181925;28;19920;-62
2023/11/17 07:26:55;;;;;;;;;;;;;;;;;;4181858;28;19928;-62
2023/11/17 07:29:00;;;;;;;;;;;;;;;;;;4182193;28;19925;-62
2023/11/17 07:31:02;;;;;;;;;;;;;;;;;;4185537;28;19927;-62
2023/11/17 07:33:05;;;;;;;;;;;;;;;;;;4198651;28;19924;-63
2023/11/17 07:35:06;;;;;;;;;;;;;;;;;;4198323;28;19943;-63
2023/11/17 07:37:08;;;;;;;;;;;;;;;;;;4198476;28;19947;-63
2023/11/17 07:39:12;;;;;;;;;;;;;;;;;;4198254;28;19924;-63
2023/11/17 07:41:14;;;;;;;;;;;;;;;;;;4198147;28;19924;-62
2023/11/17 07:43:15;;;;;;;;;;;;;;;;;;4198400;28;19924;-62
2023/11/17 07:45:17;;;;;;;;;;;;;;;;;;4198237;28;19924;-62
2023/11/17 07:47:23;;;;;;;;;;;;;;;;;;4197930;28;19928;-63
2023/11/17 07:49:25;;;;;;;;;;;;;;;;;;4198335;28;19970;-62
2023/11/17 07:51:27;;;;;;;;;;;;;;;;;;4198143;28;19960;-62
2023/11/17 07:53:29;;;;;;;;;;;;;;;;;;4198019;28;19983;-62
2023/11/17 07:55:32;;;;;;;;;;;;;;;;;;4198316;28;20011;-62
2023/11/17 07:57:35;;;;;;;;;;;;;;;;;;4198226;28;19974;-63
2023/11/17 07:59:38;;;;;;;;;;;;;;;;;;4198072;28;19931;-63
2023/11/17 08:01:40;;;;;;;;;;;;;;;;;;4197695;28;20422;-62
2023/11/17 08:03:43;;;;;;;;;;;;;;;;;;4198087;28;19927;-63
2023/11/17 08:05:44;;;;;;;;;;;;;;;;;;4197805;28;19954;-62
2023/11/17 08:07:46;;;;;;;;;;;;;;;;;;4197811;28;19946;-63
2023/11/17 08:09:47;;;;;;;;;;;;;;;;;;4181251;28;19920;-62
2023/11/17 08:11:49;;;;;;;;;;;;;;;;;;4181376;28;19975;-62
2023/11/17 08:13:51;;;;;;;;;;;;;;;;;;4181191;28;19934;-62
2023/11/17 08:15:54;;;;;;;;;;;;;;;;;;4181041;28;19921;-62
2023/11/17 08:17:57;;;;;;;;;;;;;;;;;;4180695;28;19921;-62
2023/11/17 08:19:59;;;;;;;;;;;;;;;;;;4181345;28;19924;-62
2023/11/17 08:22:01;;;;;;;;;;;;;;;;;;4181046;28;19927;-63
2023/11/17 08:24:02;;;;;;;;;;;;;;;;;;4181026;28;19920;-62
2023/11/17 08:26:05;;;;;;;;;;;;;;;;;;4179723;28;19920;-62
2023/11/17 08:28:09;;;;;;;;;;;;;;;;;;4190179;28;20339;-62
2023/11/17 08:30:11;;;;;;;;;;;;;;;;;;4196520;28;19921;-62
2023/11/17 08:32:12;;;;;;;;;;;;;;;;;;4197529;28;19920;-62
2023/11/17 08:34:16;;;;;;;;;;;;;;;;;;4197484;28;19943;-63
2023/11/17 08:36:19;;;;;;;;;;;;;;;;;;4197498;28;19927;-63
2023/11/17 08:38:21;;;;;;;;;;;;;;;;;;4197437;28;19931;-62
2023/11/17 08:40:23;;;;;;;;;;;;;;;;;;4197411;28;19989;-62
2023/11/17 08:42:24;;;;;;;;;;;;;;;;;;4197600;28;20011;-62
2023/11/17 08:44:29;;;;;;;;;;;;;;;;;;4196556;28;19921;-63
2023/11/17 08:46:31;;;;;;;;;;;;;;;;;;4197522;28;20171;-63
2023/11/17 08:48:32;;;;;;;;;;;;;;;;;;4197541;28;19927;-63
2023/11/17 08:50:34;;;;;;;;;;;;;;;;;;4197401;28;20015;-63
2023/11/17 08:52:37;;;;;;;;;;;;;;;;;;4197514;28;20031;-63
2023/11/17 08:54:38;;;;;;;;;;;;;;;;;;4197282;28;20023;-63
2023/11/17 08:56:41;;;;;;;;;;;;;;;;;;4197543;28;19920;-63
2023/11/17 08:58:43;;;;;;;;;;;;;;;;;;4197578;28;19920;-63
2023/11/17 09:00:45;;;;;;;;;;;;;;;;;;4199826;28;19958;-63
2023/11/17 09:02:48;;;;;;;;;;;;;;;;;;4201048;28;20291;-63
2023/11/17 09:04:52;;;;;;;;;;;;;;;;;;4200909;28;19920;-64
2023/11/17 09:06:53;;;;;;;;;;;;;;;;;;4194898;28;20007;-64
2023/11/17 09:08:55;;;;;;;;;;;;;;;;;;4192864;28;19920;-63
2023/11/17 09:10:58;;;;;;;;;;;;;;;;;;4200651;28;20193;-63
2023/11/17 09:13:00;;;;;;;;;;;;;;;;;;4200580;28;20319;-63
2023/11/17 09:15:01;;;;;;;;;;;;;;;;;;4200565;28;20334;-63
2023/11/17 09:17:06;;;;;;;;;;;;;;;;;;4200571;28;19994;-64
2023/11/17 09:19:11;;;;;;;;;;;;;;;;;;4200841;28;20283;-64
2023/11/17 09:21:14;;;;;;;;;;;;;;;;;;4200356;28;19940;-63
2023/11/17 09:23:17;;;;;;;;;;;;;;;;;;4200381;28;19930;-63
2023/11/17 09:25:18;;;;;;;;;;;;;;;;;;4199049;28;20384;-64
2023/11/17 09:27:20;;;;;;;;;;;;;;;;;;4200651;28;19999;-63
2023/11/17 09:29:22;;;;;;;;;;;;;;;;;;4200204;28;19920;-63
2023/11/17 09:31:24;;;;;;;;;;;;;;;;;;4200190;28;19951;-63
2023/11/17 09:33:26;;;;;;;;;;;;;;;;;;4199619;28;19955;-63
2023/11/17 09:35:28;;;;;;;;;;;;;;;;;;4200211;28;19924;-63
2023/11/17 09:37:29;;;;;;;;;;;;;;;;;;4200320;28;19931;-64
2023/11/17 09:39:31;;;;;;;;;;;;;;;;;;4200086;28;20403;-64
2023/11/17 09:41:33;;;;;;;;;;;;;;;;;;4200188;28;19920;-63
2023/11/17 09:43:34;;;;;;;;;;;;;;;;;;4200572;28;19931;-63
2023/11/17 09:45:36;;;;;;;;;;;;;;;;;;4200365;28;19963;-64
2023/11/17 09:47:38;;;;;;;;;;;;;;;;;;4200149;28;20361;-64
2023/11/17 09:49:40;;;;;;;;;;;;;;;;;;4199960;28;20377;-64
2023/11/17 09:51:42;;;;;;;;;;;;;;;;;;4200257;28;19920;-64
2023/11/17 09:53:44;;;;;;;;;;;;;;;;;;4200101;28;19966;-63
2023/11/17 09:55:45;;;;;;;;;;;;;;;;;;4200072;28;19925;-63
2023/11/17 09:57:47;;;;;;;;;;;;;;;;;;4200002;28;19920;-63
2023/11/17 09:59:49;;;;;;;;;;;;;;;;;;4200178;28;19920;-63
2023/11/17 10:01:51;;;;;;;;;;;;;;;;;;4200027;28;19924;-63
2023/11/17 10:03:52;;;;;;;;;;;;;;;;;;4187840;28;20388;-62
2023/11/17 10:05:54;;;;;;;;;;;;;;;;;;4183221;28;20027;-63
2023/11/17 10:07:56;;;;;;;;;;;;;;;;;;4183727;28;19931;-63
2023/11/17 10:09:57;;;;;;;;;;;;;;;;;;4198263;28;20343;-63
2023/11/17 10:11:59;;;;;;;;;;;;;;;;;;4199704;28;19924;-63
2023/11/17 10:14:00;;;;;;;;;;;;;;;;;;4199606;28;19931;-63
2023/11/17 10:16:02;;;;;;;;;;;;;;;;;;4199568;28;20000;-63
2023/11/17 10:18:07;;;;;;;;;;;;;;;;;;4199548;28;20363;-62
2023/11/17 10:20:15;;;;;;;;;;;;;;;;;;4199340;28;20388;-63
2023/11/17 10:22:16;;;;;;;;;;;;;;;;;;4199507;28;19942;-62
2023/11/17 10:24:18;;;;;;;;;;;;;;;;;;4199771;28;19920;-63
2023/11/17 10:26:22;;;;;;;;;;;;;;;;;;4199498;28;19924;-63
2023/11/17 10:28:24;;;;;;;;;;;;;;;;;;4199436;28;19920;-63
2023/11/17 10:30:28;;;;;;;;;;;;;;;;;;4199839;28;19966;-64
2023/11/17 10:32:29;;;;;;;;;;;;;;;;;;4182843;28;19931;-63
2023/11/17 10:34:43;;;;;;;;;;;;;;;;;;4186155;28;19928;-64
2023/11/17 10:36:44;;;;;;;;;;;;;;;;;;4199434;28;19924;-63
2023/11/17 10:38:46;;;;;;;;;;;;;;;;;;4199570;28;20339;-64
2023/11/17 10:40:48;;;;;;;;;;;;;;;;;;4199234;28;20304;-63
2023/11/17 10:42:50;;;;;;;;;;;;;;;;;;4199856;28;19924;-63
2023/11/17 10:44:52;;;;;;;;;;;;;;;;;;4199266;28;19954;-63
2023/11/17 10:46:54;;;;;;;;;;;;;;;;;;4199599;28;20447;-63
2023/11/17 10:48:55;;;;;;;;;;;;;;;;;;4189845;28;20411;-63
2023/11/17 10:50:57;;;;;;;;;;;;;;;;;;4181779;28;19942;-63
2023/11/17 10:53:00;;;;;;;;;;;;;;;;;;4189478;28;19920;-63
2023/11/17 10:55:02;;;;;;;;;;;;;;;;;;4182147;28;19920;-63
2023/11/17 10:57:04;;;;;;;;;;;;;;;;;;4185128;28;19920;-63
2023/11/17 10:59:08;;;;;;;;;;;;;;;;;;4195654;28;19925;-62
2023/11/17 11:01:14;;;;;;;;;;;;;;;;;;4182389;28;20442;-63
2023/11/17 11:03:18;;;;;;;;;;;;;;;;;;4185261;28;19931;-63
2023/11/17 11:05:21;;;;;;;;;;;;;;;;;;4184053;28;19928;-63
2023/11/17 11:07:23;;;;;;;;;;;;;;;;;;4181151;28;19929;-63
2023/11/17 11:09:25;;;;;;;;;;;;;;;;;;4186136;28;19929;-64
2023/11/17 11:11:28;;;;;;;;;;;;;;;;;;4184612;28;19921;-63
2023/11/17 11:13:30;;;;;;;;;;;;;;;;;;4183849;28;20043;-63
2023/11/17 11:15:35;;;;;;;;;;;;;;;;;;4187401;28;19921;-64
2023/11/17 11:17:36;;;;;;;;;;;;;;;;;;4180171;28;19920;-63
2023/11/17 11:19:38;;;;;;;;;;;;;;;;;;4194843;28;20349;-64
2023/11/17 11:22:00;;;;;;;;;;;;;;;;;;4198784;28;20011;-64
2023/11/17 11:24:04;;;;;;;;;;;;;;;;;;4185495;28;20384;-64
2023/11/17 11:26:07;;;;;;;;;;;;;;;;;;4181669;28;19975;-64
2023/11/17 11:28:09;;;;;;;;;;;;;;;;;;4185594;28;20281;-64
2023/11/17 11:30:10;;;;;;;;;;;;;;;;;;4191494;28;20447;-63
2023/11/17 11:32:13;;;;;;;;;;;;;;;;;;4196581;28;19921;-64
2023/11/17 11:34:15;;;;;;;;;;;;;;;;;;4192992;28;19928;-63
2023/11/17 11:36:18;;;;;;;;;;;;;;;;;;4198579;28;20323;-64
2023/11/17 11:38:20;;;;;;;;;;;;;;;;;;4197673;28;19921;-63
2023/11/17 11:40:22;;;;;;;;;;;;;;;;;;4198221;28;19920;-64
2023/11/17 11:42:24;;;;;;;;;;;;;;;;;;4191108;28;19955;-63
2023/11/17 11:44:26;;;;;;;;;;;;;;;;;;4181756;28;19925;-63
2023/11/17 11:46:29;;;;;;;;;;;;;;;;;;4184846;28;19929;-63
2023/11/17 11:48:33;;;;;;;;;;;;;;;;;;4189370;28;19928;-63
2023/11/17 11:50:37;;;;;;;;;;;;;;;;;;4182907;28;20389;-63
2023/11/17 11:52:39;;;;;;;;;;;;;;;;;;4183919;28;19928;-64
2023/11/17 11:54:41;;;;;;;;;;;;;;;;;;4181682;28;19974;-63
2023/11/17 11:56:46;;;;;;;;;;;;;;;;;;4181530;28;19979;-64
2023/11/17 11:58:47;;;;;;;;;;;;;;;;;;4198002;28;19924;-63
2023/11/17 12:00:49;;;;;;;;;;;;;;;;;;4197815;28;20371;-64
2023/11/17 12:02:50;;;;;;;;;;;;;;;;;;4196187;28;19925;-64
2023/11/17 12:04:53;;;;;;;;;;;;;;;;;;4181102;28;19920;-63
2023/11/17 12:06:55;;;;;;;;;;;;;;;;;;4183860;28;19965;-63
2023/11/17 12:08:56;;;;;;;;;;;;;;;;;;4187394;28;20287;-64
2023/11/17 12:11:01;;;;;;;;;;;;;;;;;;4181008;28;19943;-64
2023/11/17 12:13:02;;;;;;;;;;;;;;;;;;4191109;28;19943;-64
2023/11/17 12:15:05;;;;;;;;;;;;;;;;;;4197621;28;20006;-63
2023/11/17 12:17:07;;;;;;;;;;;;;;;;;;4197702;28;19924;-63
2023/11/17 12:19:09;;;;;;;;;;;;;;;;;;4197702;28;20388;-63
2023/11/17 12:21:11;;;;;;;;;;;;;;;;;;4197795;28;20269;-62
2023/11/17 12:23:12;;;;;;;;;;;;;;;;;;4197550;28;19921;-62
2023/11/17 12:25:14;;;;;;;;;;;;;;;;;;4190316;28;19978;-63
2023/11/17 12:27:17;;;;;;;;;;;;;;;;;;4188978;28;19924;-63
2023/11/17 12:29:18;;;;;;;;;;;;;;;;;;4180902;28;20288;-63
2023/11/17 12:31:20;;;;;;;;;;;;;;;;;;4189614;28;19920;-63
2023/11/17 12:33:21;;;;;;;;;;;;;;;;;;4197519;28;19931;-62
2023/11/17 12:35:23;;;;;;;;;;;;;;;;;;4186751;28;19932;-62
2023/11/17 12:37:29;;;;;;;;;;;;;;;;;;4181214;28;20380;-63
2023/11/17 12:39:30;;;;;;;;;;;;;;;;;;4180908;28;19921;-62
2023/11/17 12:41:32;;;;;;;;;;;;;;;;;;4183087;28;19931;-60
2023/11/17 12:43:34;;;;;;;;;;;;;;;;;;4185125;28;19929;-61
2023/11/17 12:45:38;;;;;;;;;;;;;;;;;;4184447;28;20348;-60
2023/11/17 12:47:39;;;;;;;;;;;;;;;;;;4197549;28;19924;-61
2023/11/17 12:49:42;;;;;;;;;;;;;;;;;;4181872;28;19965;-61
2023/11/17 12:51:43;;;;;;;;;;;;;;;;;;4179849;28;19929;-61
2023/11/17 12:53:49;;;;;;;;;;;;;;;;;;4180898;28;19986;-61
2023/11/17 12:55:52;;;;;;;;;;;;;;;;;;4180671;28;19970;-61
2023/11/17 12:57:53;;;;;;;;;;;;;;;;;;4190188;28;19955;-60
2023/11/17 12:59:55;;;;;;;;;;;;;;;;;;4197313;28;19920;-60
2023/11/17 13:01:56;;;;;;;;;;;;;;;;;;4195795;28;20281;-61
2023/11/17 13:04:02;;;;;;;;;;;;;;;;;;4197224;28;19935;-61
2023/11/17 13:06:03;;;;;;;;;;;;;;;;;;4190528;28;19925;-60
2023/11/17 13:08:05;;;;;;;;;;;;;;;;;;4179686;28;19920;-60
2023/11/17 13:10:10;;;;;;;;;;;;;;;;;;4180283;28;19921;-60
2023/11/17 13:12:13;;;;;;;;;;;;;;;;;;4180279;28;19928;-60
2023/11/17 13:14:14;;;;;;;;;;;;;;;;;;4180398;28;20027;-60
2023/11/17 13:16:17;;;;;;;;;;;;;;;;;;4180543;28;19971;-60
2023/11/17 13:18:18;;;;;;;;;;;;;;;;;;4185176;28;19920;-60
2023/11/17 13:20:23;;;;;;;;;;;;;;;;;;4196935;28;19924;-60
2023/11/17 13:22:26;;;;;;;;;;;;;;;;;;4196987;28;19920;-60
2023/11/17 13:24:28;;;;;;;;;;;;;;;;;;4195000;28;19969;-61
2023/11/17 13:26:29;;;;;;;;;;;;;;;;;;4190816;28;19928;-60
2023/11/17 13:28:31;;;;;;;;;;;;;;;;;;4196891;28;20386;-60
2023/11/17 13:30:32;;;;;;;;;;;;;;;;;;4196936;28;19924;-60
2023/11/17 13:32:34;;;;;;;;;;;;;;;;;;4196991;28;19931;-60
2023/11/17 13:34:36;;;;;;;;;;;;;;;;;;4196937;28;19969;-60
2023/11/17 13:36:38;;;;;;;;;;;;;;;;;;4197224;28;19925;-60
2023/11/17 13:38:40;;;;;;;;;;;;;;;;;;4196912;28;19920;-61
2023/11/17 13:40:42;;;;;;;;;;;;;;;;;;4197407;28;19946;-68
2023/11/17 13:42:44;;;;;;;;;;;;;;;;;;4197006;28;20019;-68
2023/11/17 13:44:45;;;;;;;;;;;;;;;;;;4196885;28;19931;-68
2023/11/17 13:46:49;;;;;;;;;;;;;;;;;;4197518;28;20299;-68
2023/11/17 13:48:52;;;;;;;;;;;;;;;;;;4190868;28;19925;-68
2023/11/17 13:50:57;;;;;;;;;;;;;;;;;;4183425;28;20359;-68
2023/11/17 13:52:59;;;;;;;;;;;;;;;;;;4197152;28;19921;-67
2023/11/17 13:55:00;;;;;;;;;;;;;;;;;;4198835;28;19928;-68
2023/11/17 13:57:05;;;;;;;;;;;;;;;;;;4194122;28;20398;-68